.
WxDataArchive / Data Records for 2008-01-23
2008-01-22 January 2008 2008-01-24

Data Records for Wednesday, 23 January 2008

Time	Temp	Chill	HIndex	Humid	Dewpt	 Wind 	HiWind	WindDir	Rain 	Barom 
-----	----	-----	------	-----	-----	------	------	-------	-----	----- 
00:00	11.9	11.9	11.9	72	4.6	3	11	270	0.00	30.102 
00:05	11.9	11.9	11.9	72	4.6	3	7	248	0.00	30.101 
00:10	11.9	11.9	11.9	72	4.6	2	7	248	0.00	30.101 
00:15	11.9	11.9	11.9	72	4.6	3	9	270	0.00	30.100 
00:20	12.1	12.1	12.1	71	4.5	3	9	248	0.00	30.099 
00:25	12.1	12.1	12.1	71	4.5	2	7	248	0.00	30.099 
00:30	12.3	5.3	12.3	71	4.7	4	11	270	0.00	30.097 
00:35	12.4	12.4	12.4	70	4.5	3	9	270	0.00	30.097 
00:40	12.6	12.6	12.6	70	4.7	3	9	270	0.00	30.094 
00:45	12.6	12.6	12.6	70	4.7	2	6	248	0.00	30.092 
00:50	12.6	12.6	12.6	70	4.7	3	10	248	0.00	30.092 
00:55	12.6	12.6	12.6	70	4.7	3	8	270	0.00	30.090 
01:00	12.4	12.4	12.4	70	4.5	2	6	270	0.00	30.089 
01:05	12.4	12.4	12.4	70	4.5	3	9	248	0.00	30.087 
01:10	12.4	5.4	12.4	70	4.5	4	9	248	0.00	30.087 
01:15	12.6	5.7	12.6	70	4.7	4	11	270	0.00	30.085 
01:20	12.4	12.4	12.4	70	4.5	2	5	248	0.00	30.085 
01:25	12.4	12.4	12.4	71	4.8	3	7	248	0.00	30.086 
01:30	12.4	12.4	12.4	71	4.8	3	9	248	0.00	30.086 
01:35	12.4	12.4	12.4	71	4.8	3	7	248	0.00	30.086 
01:40	12.4	12.4	12.4	71	4.8	2	6	248	0.00	30.084 
01:45	12.4	12.4	12.4	71	4.8	1	5	248	0.00	30.086 
01:50	12.4	12.4	12.4	71	4.8	3	10	248	0.00	30.085 
01:55	12.4	12.4	12.4	71	4.8	3	10	270	0.00	30.085 
02:00	12.4	5.4	12.4	71	4.8	4	9	248	0.00	30.085 
02:05	12.4	12.4	12.4	71	4.8	3	11	248	0.00	30.087 
02:10	12.4	5.4	12.4	72	5.1	4	9	248	0.00	30.087 
02:15	12.4	12.4	12.4	72	5.1	3	10	270	0.00	30.087 
02:20	12.4	12.4	12.4	72	5.1	2	10	270	0.00	30.087 
02:25	12.4	12.4	12.4	72	5.1	2	10	270	0.00	30.088 
02:30	12.4	12.4	12.4	72	5.1	3	10	248	0.00	30.088 
02:35	12.6	12.6	12.6	72	5.3	2	9	248	0.00	30.086 
02:40	12.6	12.6	12.6	72	5.3	2	9	270	0.00	30.086 
02:45	12.6	12.6	12.6	72	5.3	2	7	270	0.00	30.086 
02:50	12.6	12.6	12.6	72	5.3	3	11	248	0.00	30.086 
02:55	12.6	12.6	12.6	72	5.3	2	6	248	0.00	30.086 
03:00	12.6	12.6	12.6	72	5.3	2	12	270	0.00	30.085 
03:05	12.6	12.6	12.6	72	5.3	2	5	248	0.00	30.087 
03:10	12.4	12.4	12.4	72	5.1	2	9	248	0.00	30.087 
03:15	12.6	12.6	12.6	72	5.3	2	7	248	0.00	30.088 
03:20	12.4	12.4	12.4	72	5.1	1	6	248	0.00	30.087 
03:25	12.4	12.4	12.4	73	5.4	3	7	270	0.00	30.086 
03:30	12.4	12.4	12.4	72	5.1	1	5	248	0.00	30.085 
03:35	12.3	12.3	12.3	73	5.3	1	6	248	0.00	30.086 
03:40	12.3	12.3	12.3	73	5.3	1	6	248	0.00	30.084 
03:45	12.1	12.1	12.1	73	5.1	1	5	248	0.00	30.084 
03:50	12.1	12.1	12.1	73	5.1	2	5	248	0.00	30.080 
03:55	12.3	12.3	12.3	73	5.3	2	5	248	0.00	30.078 
04:00	12.1	12.1	12.1	73	5.1	1	6	248	0.00	30.075 
04:05	12.3	12.3	12.3	73	5.3	3	11	248	0.00	30.078 
04:10	12.3	12.3	12.3	73	5.3	2	5	248	0.00	30.078 
04:15	12.1	12.1	12.1	73	5.1	2	6	248	0.00	30.078 
04:20	12.1	12.1	12.1	73	5.1	2	8	270	0.00	30.078 
04:25	12.1	12.1	12.1	73	5.1	1	5	270	0.00	30.080 
04:30	12.1	12.1	12.1	73	5.1	2	10	270	0.00	30.078 
04:35	12.1	12.1	12.1	73	5.1	1	5	248	0.00	30.080 
04:40	11.9	11.9	11.9	73	4.9	1	6	270	0.00	30.082 
04:45	11.9	11.9	11.9	73	4.9	1	3	248	0.00	30.080 
04:50	11.9	11.9	11.9	73	4.9	2	6	248	0.00	30.079 
04:55	11.7	11.7	11.7	73	4.7	1	4	248	0.00	30.076 
05:00	11.7	11.7	11.7	73	4.7	2	7	248	0.00	30.076 
05:05	11.7	11.7	11.7	73	4.7	2	7	248	0.00	30.078 
05:10	11.6	11.6	11.6	73	4.7	2	6	248	0.00	30.077 
05:15	11.6	11.6	11.6	73	4.7	1	4	248	0.00	30.076 
05:20	11.6	11.6	11.6	73	4.7	2	6	248	0.00	30.077 
05:25	11.6	11.6	11.6	73	4.7	2	5	248	0.00	30.078 
05:30	11.6	11.6	11.6	73	4.7	2	11	248	0.00	30.077 
05:35	11.4	11.4	11.4	73	4.5	2	6	270	0.00	30.079 
05:40	11.4	11.4	11.4	73	4.5	1	5	248	0.00	30.078 
05:45	11.4	11.4	11.4	73	4.5	2	7	248	0.00	30.081 
05:50	11.6	11.6	11.6	73	4.7	2	6	248	0.00	30.079 
05:55	11.4	11.4	11.4	73	4.5	1	6	248	0.00	30.083 
06:00	11.4	11.4	11.4	73	4.5	1	6	248	0.00	30.081 
06:05	11.4	11.4	11.4	73	4.5	2	7	248	0.00	30.082 
06:10	11.4	11.4	11.4	73	4.5	1	6	248	0.00	30.081 
06:15	11.2	11.2	11.2	73	4.3	1	5	248	0.00	30.082 
06:20	11.2	11.2	11.2	73	4.3	2	7	248	0.00	30.085 
06:25	11.2	11.2	11.2	73	4.3	1	5	248	0.00	30.086 
06:30	11.2	11.2	11.2	73	4.3	1	5	248	0.00	30.088 
06:35	11.2	11.2	11.2	73	4.3	2	5	248	0.00	30.089 
06:40	11.2	11.2	11.2	73	4.3	2	6	248	0.00	30.092 
06:45	11.2	11.2	11.2	73	4.3	2	6	248	0.00	30.091 
06:50	11.2	11.2	11.2	73	4.3	2	5	248	0.00	30.090 
06:55	11.2	11.2	11.2	73	4.3	2	5	248	0.00	30.093 
07:00	11.1	11.1	11.1	73	4.2	1	5	248	0.00	30.095 
07:05	11.1	11.1	11.1	73	4.2	2	9	225	0.00	30.097 
07:10	10.9	10.9	10.9	73	4.0	1	5	248	0.00	30.098 
07:15	10.9	10.9	10.9	73	4.0	1	5	248	0.00	30.098 
07:20	10.7	10.7	10.7	73	3.8	1	5	248	0.00	30.101 
07:25	10.7	10.7	10.7	74	4.1	2	5	248	0.00	30.102 
07:30	10.7	10.7	10.7	73	3.8	2	12	248	0.00	30.100 
07:35	10.7	10.7	10.7	73	3.8	2	6	248	0.00	30.100 
07:40	10.7	10.7	10.7	73	3.8	2	9	248	0.00	30.102 
07:45	10.7	10.7	10.7	73	3.8	1	2	248	0.00	30.102 
07:50	10.5	10.5	10.5	74	3.9	1	5	248	0.00	30.102 
07:55	10.5	10.5	10.5	74	3.9	2	4	248	0.00	30.102 
08:00	10.7	10.7	10.7	74	4.1	2	5	248	0.00	30.101 
08:05	10.7	10.7	10.7	74	4.1	1	5	248	0.00	30.104 
08:10	10.5	10.5	10.5	73	3.6	0	4	248	0.00	30.102 
08:15	10.7	10.7	10.7	74	4.1	1	4	248	0.00	30.103 
08:20	10.7	10.7	10.7	73	3.8	2	6	248	0.00	30.108 
08:25	10.9	10.9	10.9	73	4.0	1	4	248	0.00	30.109 
08:30	10.9	10.9	10.9	73	4.0	1	4	248	0.00	30.113 
08:35	11.1	11.1	11.1	73	4.2	2	6	248	0.00	30.115 
08:40	11.2	11.2	11.2	73	4.3	1	5	248	0.00	30.117 
08:45	11.6	11.6	11.6	72	4.4	2	5	248	0.00	30.116 
08:50	11.7	11.7	11.7	72	4.4	1	5	248	0.00	30.117 
08:55	11.9	11.9	11.9	71	4.3	1	5	248	0.00	30.115 
09:00	12.1	12.1	12.1	71	4.5	0	3	248	0.00	30.116 
09:05	12.1	12.1	12.1	71	4.5	1	4	270	0.00	30.120 
09:10	12.3	12.3	12.3	71	4.7	1	4	270	0.00	30.122 
09:15	12.4	12.4	12.4	70	4.5	2	6	248	0.00	30.120 
09:20	12.6	12.6	12.6	70	4.7	1	3	248	0.00	30.121 
09:25	12.6	12.6	12.6	69	4.4	2	6	248	0.00	30.117 
09:30	12.9	12.9	12.9	69	4.7	2	6	248	0.00	30.119 
09:35	13.3	13.3	13.3	68	4.7	1	5	270	0.00	30.120 
09:40	13.5	13.5	13.5	68	4.9	2	7	248	0.00	30.119 
09:45	13.6	13.6	13.6	67	4.7	2	5	248	0.00	30.122 
09:50	13.8	13.8	13.8	67	4.9	2	5	270	0.00	30.123 
09:55	13.8	13.8	13.8	66	4.6	3	7	270	0.00	30.126 
10:00	13.8	13.8	13.8	66	4.6	2	5	270	0.00	30.126 
10:05	14.0	14.0	14.0	65	4.4	2	6	270	0.00	30.127 
10:10	14.1	14.1	14.1	65	4.5	2	7	270	0.00	30.126 
10:15	14.3	14.3	14.3	65	4.7	2	6	270	0.00	30.128 
10:20	14.4	14.4	14.4	65	4.8	2	4	248	0.00	30.126 
10:25	14.4	14.4	14.4	64	4.5	2	6	248	0.00	30.126 
10:30	14.6	14.6	14.6	65	5.0	1	5	248	0.00	30.129 
10:35	15.1	15.1	15.1	64	5.1	2	6	248	0.00	30.135 
10:40	15.2	15.2	15.2	63	4.9	2	5	270	0.00	30.140 
10:45	15.4	15.4	15.4	63	5.1	2	6	270	0.00	30.141 
10:50	15.7	15.7	15.7	62	5.0	2	6	248	0.00	30.137 
10:55	15.9	15.9	15.9	62	5.2	2	6	270	0.00	30.138 
11:00	16.4	16.4	16.4	62	5.7	2	6	248	0.00	30.139 
11:05	16.7	16.7	16.7	61	5.6	2	7	270	0.00	30.139 
11:10	16.9	16.9	16.9	60	5.4	2	4	270	0.00	30.140 
11:15	17.2	17.2	17.2	61	6.1	2	5	248	0.00	30.138 
11:20	17.3	17.3	17.3	60	5.8	2	6	270	0.00	30.142 
11:25	17.5	17.5	17.5	60	6.0	1	4	270	0.00	30.140 
11:30	17.3	17.3	17.3	60	5.8	2	5	248	0.00	30.135 
11:35	17.7	17.7	17.7	60	6.2	1	4	248	0.00	30.128 
11:40	17.8	17.8	17.8	58	5.6	3	10	248	0.00	30.128 
11:45	18.0	18.0	18.0	58	5.7	2	5	248	0.00	30.126 
11:50	17.8	17.8	17.8	58	5.6	2	7	248	0.00	30.125 
11:55	17.8	17.8	17.8	58	5.6	2	7	270	0.00	30.125 
12:00	18.1	18.1	18.1	58	5.8	2	7	248	0.00	30.125 
12:05	18.4	18.4	18.4	57	5.7	2	6	248	0.00	30.124 
12:10	18.6	18.6	18.6	58	6.3	1	5	248	0.00	30.124 
12:15	18.6	18.6	18.6	57	5.9	3	10	248	0.00	30.119 
12:20	18.8	18.8	18.8	56	5.7	3	9	270	0.00	30.118 
12:25	18.8	12.8	18.8	56	5.7	4	10	270	0.00	30.114 
12:30	18.9	18.9	18.9	56	5.8	3	6	270	0.00	30.110 
12:35	19.1	19.1	19.1	56	6.0	3	9	270	0.00	30.110 
12:40	19.2	19.2	19.2	55	5.7	3	12	270	0.00	30.110 
12:45	19.5	19.5	19.5	56	6.4	2	5	270	0.00	30.103 
12:50	19.4	19.4	19.4	56	6.3	2	5	270	0.00	30.107 
12:55	19.5	19.5	19.5	56	6.4	2	5	248	0.00	30.106 
13:00	19.9	19.9	19.9	56	6.8	2	5	248	0.00	30.106 
13:05	20.0	20.0	20.0	58	7.6	2	6	248	0.00	30.104 
13:10	20.3	20.3	20.3	56	7.1	2	7	270	0.00	30.098 
13:15	20.5	20.5	20.5	56	7.3	2	6	270	0.00	30.095 
13:20	20.5	20.5	20.5	56	7.3	3	7	270	0.00	30.094 
13:25	20.8	20.8	20.8	58	8.4	2	5	270	0.00	30.092 
13:30	20.8	20.8	20.8	56	7.6	2	6	248	0.00	30.091 
13:35	20.5	20.5	20.5	55	6.9	3	7	270	0.00	30.090 
13:40	20.2	20.2	20.2	57	7.4	2	9	270	0.00	30.085 
13:45	20.2	20.2	20.2	56	7.0	3	9	270	0.00	30.086 
13:50	20.2	20.2	20.2	57	7.4	2	5	248	0.00	30.083 
13:55	20.5	20.5	20.5	56	7.3	2	5	270	0.00	30.078 
14:00	20.6	20.6	20.6	56	7.4	2	9	270	0.00	30.077 
14:05	20.6	20.6	20.6	56	7.4	2	6	248	0.00	30.074 
14:10	20.8	20.8	20.8	56	7.6	2	7	248	0.00	30.075 
14:15	21.0	21.0	21.0	55	7.4	2	4	248	0.00	30.074 
14:20	21.0	21.0	21.0	55	7.4	1	4	225	0.00	30.072 
14:25	21.1	21.1	21.1	55	7.5	2	4	248	0.00	30.070 
14:30	21.3	21.3	21.3	55	7.7	2	7	248	0.00	30.063 
14:35	21.1	21.1	21.1	54	7.1	2	6	248	0.00	30.059 
14:40	21.0	21.0	21.0	54	7.0	2	7	248	0.00	30.061 
14:45	20.8	20.8	20.8	55	7.2	2	7	248	0.00	30.064 
14:50	21.0	21.0	21.0	54	7.0	3	12	270	0.00	30.062 
14:55	20.8	20.8	20.8	54	6.8	3	9	248	0.00	30.058 
15:00	20.8	20.8	20.8	54	6.8	3	7	248	0.00	30.057 
15:05	21.0	21.0	21.0	54	7.0	2	5	270	0.00	30.060 
15:10	21.1	21.1	21.1	55	7.5	3	10	270	0.00	30.060 
15:15	21.3	21.3	21.3	55	7.7	2	8	270	0.00	30.060 
15:20	21.8	21.8	21.8	55	8.1	2	3	248	0.00	30.058 
15:25	21.6	21.6	21.6	55	8.0	1	4	248	0.00	30.059 
15:30	21.8	21.8	21.8	55	8.1	1	3	248	0.00	30.058 
15:35	21.9	21.9	21.9	55	8.2	1	3	248	0.00	30.058 
15:40	22.1	22.1	22.1	54	8.0	1	5	248	0.00	30.058 
15:45	22.1	22.1	22.1	53	7.6	3	10	248	0.00	30.058 
15:50	21.9	21.9	21.9	54	7.8	1	5	248	0.00	30.058 
15:55	21.8	21.8	21.8	52	6.9	3	6	248	0.00	30.060 
16:00	21.6	21.6	21.6	54	7.6	1	6	248	0.00	30.060 
16:05	21.4	21.4	21.4	54	7.4	2	7	225	0.00	30.061 
16:10	21.4	21.4	21.4	54	7.4	1	5	248	0.00	30.062 
16:15	21.3	21.3	21.3	55	7.7	2	7	270	0.00	30.063 
16:20	21.3	21.3	21.3	57	8.5	1	4	248	0.00	30.061 
16:25	21.3	21.3	21.3	58	8.9	1	3	248	0.00	30.061 
16:30	21.3	21.3	21.3	57	8.5	1	3	248	0.00	30.061 
16:35	21.3	21.3	21.3	57	8.5	1	3	248	0.00	30.062 
16:40	21.3	21.3	21.3	58	8.9	1	3	248	0.00	30.061 
16:45	21.1	21.1	21.1	58	8.7	1	3	248	0.00	30.061 
16:50	21.1	21.1	21.1	58	8.7	0	2	248	0.00	30.060 
16:55	21.0	21.0	21.0	59	9.0	1	3	248	0.00	30.056 
17:00	21.0	21.0	21.0	59	9.0	1	4	248	0.00	30.049 
17:05	21.0	21.0	21.0	60	9.3	1	5	248	0.00	30.048 
17:10	21.0	21.0	21.0	60	9.3	0	1	248	0.00	30.046 
17:15	21.0	21.0	21.0	60	9.3	1	3	248	0.00	30.046 
17:20	21.0	21.0	21.0	60	9.3	0	1	248	0.00	30.044 
17:25	21.1	21.1	21.1	60	9.4	0	2	248	0.00	30.044 
17:30	21.0	21.0	21.0	60	9.3	0	1	248	0.00	30.044 
17:35	21.0	21.0	21.0	60	9.3	0	1	248	0.00	30.044 
17:40	20.8	20.8	20.8	60	9.1	0	1	248	0.00	30.043 
17:45	20.6	20.6	20.6	61	9.3	0	1	248	0.00	30.045 
17:50	20.5	20.5	20.5	61	9.2	0	3	248	0.00	30.050 
17:55	20.5	20.5	20.5	62	9.6	0	1	248	0.00	30.054 
18:00	20.5	20.5	20.5	62	9.6	0	1	248	0.00	30.057 
18:05	20.5	20.5	20.5	62	9.6	0	3	225	0.00	30.059 
18:10	20.3	20.3	20.3	62	9.4	0	1	225	0.00	30.061 
18:15	20.3	20.3	20.3	62	9.4	0	1	225	0.00	30.059 
18:20	20.2	20.2	20.2	62	9.3	0	1	225	0.00	30.054 
18:25	20.2	20.2	20.2	63	9.7	0	1	225	0.00	30.048 
18:30	20.2	20.2	20.2	63	9.7	0	2	225	0.00	30.050 
18:35	20.2	20.2	20.2	64	10.0	0	1	225	0.00	30.049 
18:40	20.0	20.0	20.0	64	9.8	0	1	225	0.00	30.047 
18:45	20.0	20.0	20.0	63	9.5	0	2	225	0.00	30.045 
18:50	20.0	20.0	20.0	64	9.8	0	0	---	0.00	30.046 
18:55	20.0	20.0	20.0	64	9.8	0	0	---	0.00	30.045 
19:00	20.0	20.0	20.0	65	10.2	0	0	---	0.00	30.046 
19:05	20.0	20.0	20.0	65	10.2	0	0	---	0.00	30.049 
19:10	20.0	20.0	20.0	65	10.2	0	0	---	0.00	30.050 
19:15	20.0	20.0	20.0	65	10.2	0	0	---	0.00	30.048 
19:20	19.9	19.9	19.9	65	10.1	0	0	---	0.00	30.047 
19:25	19.9	19.9	19.9	65	10.1	0	0	---	0.00	30.050 
19:30	19.9	19.9	19.9	66	10.4	0	0	---	0.00	30.051 
19:35	19.9	19.9	19.9	66	10.4	0	0	---	0.00	30.050 
19:40	19.9	19.9	19.9	66	10.4	0	1	225	0.00	30.049 
19:45	19.7	19.7	19.7	67	10.5	0	0	---	0.00	30.047 
19:50	19.7	19.7	19.7	67	10.5	0	0	---	0.00	30.047 
19:55	19.7	19.7	19.7	66	10.2	0	0	---	0.00	30.043 
20:00	19.5	19.5	19.5	67	10.4	0	0	---	0.00	30.045 
20:05	19.5	19.5	19.5	67	10.4	0	0	---	0.00	30.036 
20:10	19.4	19.4	19.4	67	10.3	0	0	---	0.00	30.039 
20:15	19.4	19.4	19.4	67	10.3	0	0	---	0.00	30.043 
20:20	19.2	19.2	19.2	67	10.1	0	0	---	0.00	30.044 
20:25	19.2	19.2	19.2	68	10.4	0	0	---	0.00	30.043 
20:30	19.1	19.1	19.1	68	10.3	0	0	---	0.00	30.038 
20:35	19.1	19.1	19.1	69	10.6	0	0	---	0.00	30.038 
20:40	18.9	18.9	18.9	69	10.4	0	0	---	0.00	30.040 
20:45	18.8	18.8	18.8	69	10.3	0	0	---	0.00	30.041 
20:50	18.6	18.6	18.6	69	10.2	0	0	---	0.00	30.042 
20:55	18.6	18.6	18.6	69	10.2	0	0	---	0.00	30.036 
21:00	18.3	18.3	18.3	70	10.2	0	0	---	0.00	30.034 
21:05	18.1	18.1	18.1	70	10.0	0	0	---	0.00	30.031 
21:10	17.8	17.8	17.8	70	9.7	0	0	---	0.00	30.030 
21:15	17.5	17.5	17.5	71	9.7	0	0	---	0.00	30.031 
21:20	17.2	17.2	17.2	71	9.4	0	0	---	0.00	30.031 
21:25	16.7	16.7	16.7	72	9.3	0	0	---	0.00	30.032 
21:30	16.5	16.5	16.5	73	9.4	0	0	---	0.00	30.033 
21:35	16.4	16.4	16.4	73	9.3	0	0	---	0.00	30.032 
21:40	16.2	16.2	16.2	74	9.4	0	0	---	0.00	30.031 
21:45	16.2	16.2	16.2	75	9.7	0	0	---	0.00	30.030 
21:50	16.4	16.4	16.4	76	10.2	0	0	---	0.00	30.030 
21:55	16.4	16.4	16.4	76	10.2	0	0	---	0.00	30.028 
22:00	16.5	16.5	16.5	76	10.3	0	0	---	0.00	30.028 
22:05	16.5	16.5	16.5	76	10.3	0	0	---	0.00	30.019 
22:10	16.5	16.5	16.5	77	10.6	0	0	---	0.00	30.015 
22:15	16.5	16.5	16.5	76	10.3	0	0	---	0.00	30.015 
22:20	16.5	16.5	16.5	76	10.3	0	0	---	0.00	30.014 
22:25	16.5	16.5	16.5	77	10.6	0	0	---	0.00	30.010 
22:30	16.5	16.5	16.5	77	10.6	0	0	---	0.00	30.012 
22:35	16.5	16.5	16.5	76	10.3	0	0	---	0.00	30.011 
22:40	16.5	16.5	16.5	77	10.6	0	0	---	0.00	30.009 
22:45	16.4	16.4	16.4	77	10.5	0	0	---	0.00	30.013 
22:50	16.5	16.5	16.5	77	10.6	0	0	---	0.00	30.013 
22:55	16.5	16.5	16.5	78	10.9	0	0	---	0.00	30.013 
23:00	16.7	16.7	16.7	78	11.1	0	0	---	0.00	30.014 
23:05	16.7	16.7	16.7	78	11.1	0	0	---	0.00	30.012 
23:10	16.9	16.9	16.9	78	11.3	0	0	---	0.00	30.011 
23:15	17.0	17.0	17.0	77	11.1	0	0	---	0.00	30.012 
23:20	17.2	17.2	17.2	77	11.3	0	0	---	0.00	30.011 
23:25	17.2	17.2	17.2	77	11.3	0	0	---	0.00	30.011 
23:30	17.3	17.3	17.3	77	11.3	0	0	---	0.00	30.010 
23:35	17.5	17.5	17.5	76	11.3	0	0	---	0.00	30.008 
23:40	17.7	17.7	17.7	76	11.4	0	0	---	0.00	30.007 
23:45	17.8	17.8	17.8	76	11.5	0	0	---	0.00	30.008 
23:50	17.8	17.8	17.8	76	11.5	0	0	---	0.00	30.008 
23:55	18.0	18.0	18.0	76	11.7	0	0	---	0.00	30.004 

CoCoRaHS
IN-AL-39
A2 Web Hosting
Creative Commons License
GoDaddy
Look for:

loaded 2017-12-12 14:44:12 • last modified 2010-11-18 10:43:29
Privacy PolicyDisclaimer
• wx.awcolley.com is powered by PmWiki v.2002016 •
• all content (unless otherwise noted) © 2017 A W Colley